createdAt,value
2018-01-24T00:04:31.924Z,0.0
2018-01-24T00:15:19.476Z,0.0
2018-01-24T00:26:52.258Z,0.0
2018-01-24T00:37:58.784Z,0.0
2018-01-24T00:49:30.534Z,0.0
2018-01-24T01:00:17.857Z,0.0
2018-01-24T01:10:31.626Z,0.0
2018-01-24T01:20:45.191Z,0.0
2018-01-24T01:30:58.695Z,0.0
2018-01-24T01:41:12.060Z,0.0
2018-01-24T01:51:25.285Z,0.0
2018-01-24T02:01:39.567Z,0.0
2018-01-24T02:11:54.974Z,0.0
2018-01-24T02:22:08.578Z,0.0
2018-01-24T02:32:21.933Z,0.0
2018-01-24T02:42:35.100Z,0.0
2018-01-24T02:52:48.545Z,0.0
2018-01-24T03:03:02.545Z,0.0
2018-01-24T03:13:15.592Z,0.0
2018-01-24T03:23:28.722Z,0.0
2018-01-24T03:33:42.036Z,0.0
2018-01-24T03:43:53.395Z,0.0
2018-01-24T03:54:06.570Z,0.0
2018-01-24T04:04:19.708Z,0.0
2018-01-24T04:14:33.007Z,0.0
2018-01-24T04:24:46.101Z,0.0
2018-01-24T04:34:59.514Z,0.0
2018-01-24T04:45:12.491Z,0.0
2018-01-24T04:55:26.134Z,0.0
2018-01-24T05:06:11.590Z,0.0
2018-01-24T05:16:24.945Z,0.0
2018-01-24T05:26:38.126Z,0.0
2018-01-24T05:36:51.718Z,0.0
2018-01-24T05:59:40.619Z,0.0
2018-01-24T06:09:55.648Z,0.0
2018-01-24T06:20:09.549Z,0.0
2018-01-24T06:30:30.784Z,0.0
2018-01-24T06:40:44.164Z,0.0
2018-01-24T06:50:58.514Z,0.0
2018-01-24T07:01:12.626Z,4.0
2018-01-24T07:11:26.123Z,16.0
2018-01-24T07:22:11.715Z,56.0
2018-01-24T07:32:56.978Z,60.0
2018-01-24T07:43:10.850Z,120.0
2018-01-24T07:53:24.606Z,300.0
2018-01-24T08:03:37.766Z,1208.0
2018-01-24T08:13:51.009Z,1256.0
2018-01-24T08:24:04.351Z,960.0
2018-01-24T08:34:18.273Z,1608.0
2018-01-24T08:44:31.683Z,2500.0
2018-01-24T08:54:45.308Z,1412.0
2018-01-24T09:04:59.005Z,1296.0
2018-01-24T09:15:13.455Z,1324.0
2018-01-24T09:25:26.561Z,1480.0
2018-01-24T09:35:39.854Z,1232.0
2018-01-24T09:45:53.299Z,2156.0
2018-01-24T09:56:07.807Z,3776.0
2018-01-24T10:06:22.788Z,5544.0
2018-01-24T10:16:36.753Z,5188.0
2018-01-24T10:26:50.720Z,3560.0
2018-01-24T10:37:03.707Z,6096.0
2018-01-24T10:47:17.416Z,7124.0
2018-01-24T10:57:31.431Z,8312.0
2018-01-24T11:07:45.612Z,9548.0
2018-01-24T11:17:59.863Z,8904.0
2018-01-24T11:28:14.192Z,1168.0
2018-01-24T11:38:28.448Z,788.0
2018-01-24T11:48:43.077Z,1064.0
2018-01-24T11:58:56.535Z,1464.0
2018-01-24T12:09:09.741Z,1504.0
2018-01-24T12:19:23.130Z,1372.0
2018-01-24T12:29:37.207Z,4360.0
2018-01-24T12:39:51.202Z,1468.0
2018-01-24T12:50:04.501Z,1092.0
2018-01-24T13:00:49.251Z,872.0
2018-01-24T13:11:19.054Z,1168.0
2018-01-24T13:22:25.643Z,2412.0
2018-01-24T13:45:27.147Z,2588.0
2018-01-24T13:56:28.928Z,2184.0
2018-01-24T14:06:42.574Z,1032.0
2018-01-24T14:16:56.264Z,1196.0
2018-01-24T14:28:40.515Z,1076.0
2018-01-24T15:21:00.667Z,372.0
2018-01-24T15:31:14.805Z,200.0
2018-01-24T15:42:03.500Z,188.0
2018-01-24T15:52:59.346Z,88.0
2018-01-24T16:03:13.788Z,60.0
2018-01-24T16:14:08.840Z,28.0
2018-01-24T16:24:23.859Z,12.0
2018-01-24T16:34:38.453Z,4.0
2018-01-24T16:45:35.317Z,0.0
2018-01-24T16:55:49.347Z,0.0
2018-01-24T17:06:37.814Z,0.0
2018-01-24T17:16:52.397Z,0.0
2018-01-24T17:27:37.790Z,0.0
2018-01-24T17:38:03.512Z,0.0
2018-01-24T17:48:24.611Z,0.0
2018-01-24T18:00:35.367Z,0.0
2018-01-24T18:12:18.760Z,0.0
2018-01-24T18:23:04.470Z,0.0
2018-01-24T18:33:57.150Z,0.0
2018-01-24T18:44:28.491Z,0.0
2018-01-24T20:04:22.102Z,0.0
2018-01-24T20:15:55.185Z,0.0
2018-01-24T20:28:49.430Z,0.0
2018-01-24T20:41:42.031Z,0.0
2018-01-24T21:05:51.869Z,0.0
2018-01-24T21:16:06.442Z,0.0
2018-01-24T21:27:08.331Z,0.0
2018-01-24T21:37:55.560Z,0.0
2018-01-24T21:48:40.489Z,0.0
2018-01-24T21:58:53.807Z,0.0
2018-01-24T22:09:07.879Z,0.0
2018-01-24T22:19:21.083Z,0.0
2018-01-24T22:29:34.229Z,0.0
2018-01-24T22:39:47.647Z,0.0
2018-01-24T22:50:01.819Z,0.0
2018-01-24T23:00:13.009Z,0.0
2018-01-24T23:10:26.012Z,0.0
2018-01-24T23:20:37.441Z,0.0
2018-01-24T23:30:51.363Z,0.0
2018-01-24T23:41:04.791Z,0.0
2018-01-24T23:51:18.051Z,0.0
